Time;durP1;ratioP1;P1;durP2;ratioP2;P2;SDS_P1;SDS_P2;PMS_P1;PMS_P2;Temp;Humidity;BMP_temperature;BMP_pressure;BME280_temperature;BME280_humidity;BME280_pressure;Samples;Min_cycle;Max_cycle;Signal;HPM_P1;HPM_P2
2021/03/06 00:01:14;;;;;;;25.85;14.40;;;28.70;72.90;;;;;;5043530;28;20036;-41
2021/03/06 00:03:41;;;;;;;27.40;12.93;;;28.60;72.60;;;;;;5043284;28;20068;-45
2021/03/06 00:06:08;;;;;;;25.92;12.60;;;28.60;72.70;;;;;;5043198;28;20029;-49
2021/03/06 00:08:34;;;;;;;26.30;13.27;;;28.60;72.90;;;;;;5043250;28;20206;-42
2021/03/06 00:11:01;;;;;;;34.20;12.32;;;28.60;73.50;;;;;;5041997;28;20037;-43
2021/03/06 00:13:27;;;;;;;28.42;13.15;;;28.60;74.00;;;;;;5043285;28;20013;-44
2021/03/06 00:15:55;;;;;;;28.17;11.90;;;28.50;74.20;;;;;;5044048;28;20021;-44
2021/03/06 00:18:22;;;;;;;23.52;11.38;;;28.50;74.40;;;;;;5043448;28;20021;-45
2021/03/06 00:20:48;;;;;;;25.05;11.52;;;28.50;74.30;;;;;;5043498;28;20049;-49
2021/03/06 00:23:15;;;;;;;14.45;10.15;;;28.50;73.70;;;;;;5042978;28;20071;-45
2021/03/06 00:25:41;;;;;;;21.17;10.90;;;28.50;73.50;;;;;;5043856;28;20028;-49
2021/03/06 00:28:09;;;;;;;18.33;11.93;;;28.40;73.60;;;;;;5043298;28;20249;-48
2021/03/06 00:30:36;;;;;;;18.70;13.27;;;28.40;73.50;;;;;;5043876;28;20034;-43
2021/03/06 00:33:03;;;;;;;21.45;13.02;;;28.30;73.80;;;;;;5043576;28;20021;-42
2021/03/06 00:35:30;;;;;;;25.38;13.63;;;28.30;74.20;;;;;;5043715;28;20085;-48
2021/03/06 00:37:57;;;;;;;21.40;13.13;;;28.30;74.60;;;;;;5043502;28;20026;-45
2021/03/06 00:40:23;;;;;;;24.90;12.70;;;28.30;74.10;;;;;;5043447;28;20048;-45
2021/03/06 00:42:50;;;;;;;38.85;20.50;;;28.30;73.90;;;;;;5041413;28;20079;-44
2021/03/06 00:45:17;;;;;;;28.55;17.75;;;28.40;74.20;;;;;;5043286;28;20030;-41
2021/03/06 00:47:43;;;;;;;21.63;12.10;;;28.30;74.40;;;;;;5043068;28;20048;-47
2021/03/06 00:50:16;;;;;;;32.05;11.18;;;28.40;74.80;;;;;;5043215;28;20025;-50
2021/03/06 00:52:42;;;;;;;20.77;10.80;;;28.30;74.90;;;;;;5043250;28;20059;-50
2021/03/06 00:55:09;;;;;;;27.83;11.93;;;28.30;74.90;;;;;;5051546;28;20033;-48
2021/03/06 00:57:36;;;;;;;34.30;11.25;;;28.30;75.10;;;;;;5052952;28;20278;-46
2021/03/06 01:00:04;;;;;;;22.98;9.73;;;28.30;75.60;;;;;;5046959;28;20241;-47
2021/03/06 01:02:31;;;;;;;21.38;9.60;;;28.30;75.60;;;;;;5046594;28;20028;-48
2021/03/06 01:04:57;;;;;;;25.17;9.35;;;28.30;76.10;;;;;;5046560;28;20044;-50
2021/03/06 01:07:24;;;;;;;22.45;9.27;;;28.30;76.10;;;;;;5046695;28;20081;-47
2021/03/06 01:09:51;;;;;;;30.52;9.38;;;28.30;76.30;;;;;;5046429;28;20029;-52
2021/03/06 01:12:17;;;;;;;12.00;8.25;;;28.30;76.30;;;;;;5046283;28;20017;-45
2021/03/06 01:14:44;;;;;;;20.17;8.65;;;28.20;76.40;;;;;;5046435;28;20095;-51
2021/03/06 01:17:21;;;;;;;14.27;7.43;;;28.20;76.50;;;;;;5045990;28;20329;-44
2021/03/06 01:19:47;;;;;;;11.18;7.85;;;28.10;76.70;;;;;;5046358;28;20083;-52
2021/03/06 01:22:14;;;;;;;16.42;8.55;;;28.10;76.30;;;;;;5046035;28;20052;-50
2021/03/06 01:24:40;;;;;;;18.50;8.45;;;28.10;76.60;;;;;;5045937;28;20142;-47
2021/03/06 01:27:07;;;;;;;16.20;10.57;;;28.10;76.20;;;;;;5045798;28;20024;-46
2021/03/06 01:29:33;;;;;;;22.27;11.75;;;28.10;75.70;;;;;;5045928;28;20087;-47
2021/03/06 01:32:00;;;;;;;20.75;12.35;;;28.10;75.70;;;;;;5046066;28;20025;-48
2021/03/06 01:34:27;;;;;;;22.30;11.35;;;28.10;75.30;;;;;;5045824;28;20033;-49
2021/03/06 01:36:55;;;;;;;13.95;9.55;;;28.10;75.30;;;;;;5045835;28;20067;-48
2021/03/06 01:39:22;;;;;;;16.95;9.07;;;28.10;74.80;;;;;;5061854;28;20313;-46
2021/03/06 01:41:49;;;;;;;13.65;8.25;;;28.10;74.70;;;;;;5064164;28;20032;-49
2021/03/06 01:44:16;;;;;;;14.07;7.97;;;28.10;74.10;;;;;;5065650;28;20108;-49
2021/03/06 01:46:44;;;;;;;14.75;9.32;;;28.10;74.10;;;;;;5065566;28;20092;-44
2021/03/06 01:49:11;;;;;;;15.55;11.15;;;28.10;74.10;;;;;;5064571;28;20072;-44
2021/03/06 01:51:38;;;;;;;13.77;11.02;;;28.10;73.60;;;;;;5065467;28;20110;-45
2021/03/06 01:54:06;;;;;;;16.77;11.30;;;28.10;73.80;;;;;;5065765;28;20202;-44
2021/03/06 01:56:33;;;;;;;18.92;9.93;;;28.10;73.50;;;;;;5065707;28;20017;-45
2021/03/06 01:59:02;;;;;;;14.60;8.70;;;28.10;73.00;;;;;;5065772;28;20039;-49
2021/03/06 02:01:29;;;;;;;13.73;8.50;;;28.10;73.10;;;;;;5065440;28;20021;-44
2021/03/06 02:03:58;;;;;;;13.48;9.70;;;28.10;72.60;;;;;;5065276;28;20025;-48
2021/03/06 02:06:27;;;;;;;15.98;8.77;;;28.00;72.40;;;;;;5065469;28;20051;-46
2021/03/06 02:08:55;;;;;;;11.98;8.23;;;28.00;72.30;;;;;;5065459;28;20293;-45
2021/03/06 02:11:59;;;;;;;18.40;9.07;;;28.00;72.70;;;;;;5064908;28;20313;-47
2021/03/06 02:15:00;;;;;;;17.23;8.10;;;28.00;73.00;;;;;;5065105;28;20075;-53
2021/03/06 02:17:41;;;;;;;11.32;8.10;;;28.00;72.80;;;;;;5065219;28;20016;-43
2021/03/06 02:20:32;;;;;;;15.17;9.23;;;28.00;72.50;;;;;;5065662;28;20032;-45
2021/03/06 02:23:24;;;;;;;18.67;10.15;;;28.00;72.60;;;;;;5065055;28;20021;-50
2021/03/06 02:26:25;;;;;;;15.75;9.73;;;28.00;72.70;;;;;;5065523;28;20029;-47
2021/03/06 02:29:25;;;;;;;22.80;10.82;;;28.00;73.00;;;;;;5064760;28;20033;-44
2021/03/06 02:31:54;;;;;;;16.27;9.23;;;27.90;72.30;;;;;;5065235;28;20074;-46
2021/03/06 02:34:31;;;;;;;18.33;12.75;;;27.90;72.70;;;;;;5064077;28;20217;-47
2021/03/06 02:37:06;;;;;;;18.98;13.38;;;27.80;72.70;;;;;;5063756;28;20033;-50
2021/03/06 02:39:35;;;;;;;20.15;12.73;;;27.80;73.50;;;;;;5063828;28;20035;-44
2021/03/06 02:42:06;;;;;;;16.58;9.95;;;27.70;72.60;;;;;;5063646;28;20040;-50
2021/03/06 02:44:34;;;;;;;17.13;10.45;;;27.70;72.90;;;;;;5063837;28;20024;-45
2021/03/06 02:47:03;;;;;;;20.48;12.32;;;27.80;73.50;;;;;;5064756;28;20367;-40
2021/03/06 02:49:30;;;;;;;37.70;20.17;;;27.70;74.00;;;;;;5064623;28;20103;-43
2021/03/06 02:51:57;;;;;;;44.83;26.65;;;27.70;74.00;;;;;;5063232;28;20394;-43
2021/03/06 02:54:24;;;;;;;37.83;23.63;;;27.70;73.90;;;;;;5064716;28;20098;-45
2021/03/06 02:56:51;;;;;;;63.45;45.03;;;27.70;73.90;;;;;;5064514;28;20031;-47
2021/03/06 02:59:29;;;;;;;97.38;62.28;;;27.70;74.10;;;;;;5064749;28;20078;-45
2021/03/06 03:02:09;;;;;;;53.50;34.58;;;27.80;73.80;;;;;;5063363;28;20078;-43
2021/03/06 03:05:13;;;;;;;38.92;26.50;;;27.80;74.00;;;;;;5064806;28;20021;-43
2021/03/06 03:08:04;;;;;;;24.95;17.25;;;27.80;73.90;;;;;;5064407;28;20017;-45
2021/03/06 03:10:34;;;;;;;29.65;15.95;;;27.80;73.50;;;;;;5064654;28;20096;-44
2021/03/06 03:13:19;;;;;;;21.75;12.80;;;27.80;73.50;;;;;;5064443;28;20020;-44
2021/03/06 03:15:50;;;;;;;21.85;11.57;;;27.80;73.10;;;;;;5063574;28;20025;-48
2021/03/06 03:18:37;;;;;;;21.10;11.73;;;27.80;73.00;;;;;;5064283;28;20213;-48
2021/03/06 03:21:05;;;;;;;35.17;15.25;;;27.80;72.80;;;;;;5064340;28;20604;-44
2021/03/06 03:23:53;;;;;;;20.08;12.13;;;27.80;73.20;;;;;;5064365;28;20020;-45
2021/03/06 03:26:22;;;;;;;14.38;8.60;;;27.70;73.10;;;;;;5064045;28;20078;-49
2021/03/06 03:28:50;;;;;;;15.45;8.15;;;27.70;72.90;;;;;;5063223;28;20066;-48
2021/03/06 03:31:19;;;;;;;12.32;8.77;;;27.70;72.30;;;;;;5063903;28;20111;-46
2021/03/06 03:33:46;;;;;;;17.33;10.10;;;27.70;73.10;;;;;;5064038;28;20055;-47
2021/03/06 03:36:13;;;;;;;12.70;8.60;;;27.70;72.90;;;;;;5063986;28;20017;-44
2021/03/06 03:38:41;;;;;;;12.18;8.38;;;27.70;72.50;;;;;;5063737;28;20009;-42
2021/03/06 03:41:10;;;;;;;12.02;8.27;;;27.70;72.70;;;;;;5063978;28;20424;-43
2021/03/06 03:43:38;;;;;;;12.88;8.88;;;27.70;72.90;;;;;;5064477;28;20048;-48
2021/03/06 03:46:06;;;;;;;14.25;9.77;;;27.70;73.30;;;;;;5063832;28;20359;-42
2021/03/06 03:48:34;;;;;;;16.70;9.98;;;27.70;73.10;;;;;;5063759;28;20029;-46
2021/03/06 03:51:02;;;;;;;13.38;8.65;;;27.70;72.80;;;;;;5063436;28;20049;-43
2021/03/06 03:53:29;;;;;;;14.70;7.97;;;27.70;72.60;;;;;;5063674;28;20242;-43
2021/03/06 03:55:56;;;;;;;11.73;7.38;;;27.70;72.00;;;;;;5064287;28;20238;-42
2021/03/06 03:58:24;;;;;;;10.27;7.13;;;27.70;72.10;;;;;;5063674;28;20043;-42
2021/03/06 04:00:59;;;;;;;9.35;6.68;;;27.70;72.90;;;;;;5063461;28;20135;-44
2021/03/06 04:03:29;;;;;;;9.88;6.47;;;27.60;72.70;;;;;;5063698;28;20075;-47
2021/03/06 04:05:57;;;;;;;12.27;6.72;;;27.60;73.00;;;;;;5064206;28;20052;-42
2021/03/06 04:08:24;;;;;;;12.57;7.40;;;27.60;72.60;;;;;;5063580;28;20059;-46
2021/03/06 04:10:51;;;;;;;23.10;8.30;;;27.70;72.50;;;;;;5064013;28;20029;-43
2021/03/06 04:13:18;;;;;;;12.18;6.50;;;27.60;72.60;;;;;;5063574;28;20020;-51
2021/03/06 04:15:44;;;;;;;11.93;7.55;;;27.70;72.30;;;;;;5064040;28;20183;-44
2021/03/06 04:18:11;;;;;;;13.90;7.95;;;27.60;72.30;;;;;;5063711;28;20016;-42
2021/03/06 04:20:38;;;;;;;10.63;6.68;;;27.70;71.90;;;;;;5064027;28;20097;-43
2021/03/06 04:23:04;;;;;;;10.07;6.13;;;27.70;71.30;;;;;;5063317;28;20352;-44
2021/03/06 04:25:31;;;;;;;10.55;5.53;;;27.70;71.10;;;;;;5063862;28;20033;-38
2021/03/06 04:27:58;;;;;;;9.73;5.50;;;27.70;70.70;;;;;;5065923;28;20089;-41
2021/03/06 04:30:25;;;;;;;9.85;6.53;;;27.70;70.80;;;;;;5067948;28;20240;-42
2021/03/06 04:32:52;;;;;;;10.93;6.50;;;27.70;71.40;;;;;;5067365;28;20016;-44
2021/03/06 04:35:19;;;;;;;8.55;6.45;;;27.70;70.50;;;;;;5067731;28;20032;-41
2021/03/06 04:37:46;;;;;;;10.88;7.20;;;27.70;70.40;;;;;;5067203;28;20021;-44
2021/03/06 04:40:14;;;;;;;11.10;6.35;;;27.70;70.40;;;;;;5067567;28;20059;-41
2021/03/06 04:42:41;;;;;;;8.77;5.45;;;27.70;70.90;;;;;;5067298;28;20025;-45
2021/03/06 04:45:09;;;;;;;8.82;6.13;;;27.70;70.90;;;;;;5067260;28;20209;-44
2021/03/06 04:47:43;;;;;;;9.88;5.30;;;27.70;70.70;;;;;;5066823;28;20021;-42
2021/03/06 04:50:11;;;;;;;9.35;5.70;;;27.70;70.30;;;;;;5067302;28;20033;-45
2021/03/06 04:52:37;;;;;;;7.75;4.82;;;27.70;70.40;;;;;;5066775;28;20376;-49
2021/03/06 04:55:06;;;;;;;7.70;5.10;;;27.70;69.90;;;;;;5067202;28;20023;-43
2021/03/06 04:57:33;;;;;;;6.28;4.28;;;27.70;68.70;;;;;;5066668;28;20024;-43
2021/03/06 05:00:00;;;;;;;5.28;3.50;;;27.80;68.50;;;;;;5067267;28;20204;-44
2021/03/06 05:02:27;;;;;;;5.50;3.90;;;27.80;68.10;;;;;;5066933;28;20136;-42
2021/03/06 05:04:54;;;;;;;4.47;3.72;;;27.80;68.00;;;;;;5066980;28;20033;-41
2021/03/06 05:07:21;;;;;;;5.07;3.92;;;27.80;67.60;;;;;;5066693;28;20063;-40
2021/03/06 05:09:47;;;;;;;5.78;3.67;;;27.80;67.40;;;;;;5066824;28;20243;-49
2021/03/06 05:12:14;;;;;;;7.05;4.05;;;27.80;67.10;;;;;;5066664;28;20023;-43
2021/03/06 05:14:40;;;;;;;6.25;3.95;;;27.80;67.10;;;;;;5066749;28;20025;-42
2021/03/06 05:17:07;;;;;;;7.65;3.90;;;27.80;67.10;;;;;;5066655;28;20048;-45
2021/03/06 05:19:33;;;;;;;5.15;3.55;;;27.80;67.20;;;;;;5066788;28;20021;-45
2021/03/06 05:22:00;;;;;;;8.05;3.85;;;27.80;66.90;;;;;;5066395;28;20082;-49
2021/03/06 05:24:27;;;;;;;5.00;3.50;;;27.80;67.20;;;;;;5066900;28;20025;-41
2021/03/06 05:27:02;;;;;;;4.57;3.72;;;27.80;67.10;;;;;;5066403;28;20059;-43
2021/03/06 05:29:33;;;;;;;6.05;4.10;;;27.80;66.90;;;;;;5066517;28;20424;-43
2021/03/06 05:32:01;;;;;;;6.38;3.80;;;27.80;67.10;;;;;;5066574;28;20019;-47
2021/03/06 05:34:28;;;;;;;5.22;3.53;;;27.80;68.10;;;;;;5066582;28;20025;-42
2021/03/06 05:36:54;;;;;;;4.40;3.67;;;27.70;67.20;;;;;;5066765;28;20066;-47
2021/03/06 05:39:21;;;;;;;6.00;3.97;;;27.80;67.50;;;;;;5065871;28;20036;-44
2021/03/06 05:41:48;;;;;;;5.07;3.78;;;27.70;67.40;;;;;;5066057;28;20121;-41
2021/03/06 05:44:15;;;;;;;5.75;4.00;;;27.70;67.50;;;;;;5066071;28;20070;-44
2021/03/06 05:46:43;;;;;;;8.82;4.28;;;27.80;67.20;;;;;;5066185;28;20135;-47
2021/03/06 05:49:11;;;;;;;10.02;5.22;;;27.80;67.40;;;;;;5065958;28;20174;-41
2021/03/06 05:51:39;;;;;;;11.02;5.55;;;27.70;67.50;;;;;;5065992;28;20317;-46
2021/03/06 05:54:13;;;;;;;11.70;6.18;;;27.70;67.50;;;;;;5065996;28;20201;-53
2021/03/06 05:56:43;;;;;;;12.73;5.85;;;27.70;67.60;;;;;;5065955;28;20036;-43
2021/03/06 05:59:14;;;;;;;8.38;5.43;;;27.70;67.60;;;;;;5066157;28;20080;-42
2021/03/06 06:01:42;;;;;;;9.50;5.10;;;27.70;67.70;;;;;;5065879;28;20044;-43
2021/03/06 06:04:10;;;;;;;11.80;4.70;;;27.70;68.00;;;;;;5065909;28;20067;-44
2021/03/06 06:06:39;;;;;;;4.80;3.72;;;27.70;67.80;;;;;;5065755;28;20020;-43
2021/03/06 06:09:08;;;;;;;5.10;3.72;;;27.70;67.50;;;;;;5065800;28;20096;-49
2021/03/06 06:11:35;;;;;;;5.60;4.10;;;27.70;67.60;;;;;;5065716;28;20329;-43
2021/03/06 06:14:03;;;;;;;4.93;3.75;;;27.60;67.50;;;;;;5065584;28;20033;-44
2021/03/06 06:16:34;;;;;;;6.90;3.60;;;27.60;67.80;;;;;;5065485;28;20310;-45
2021/03/06 06:19:04;;;;;;;8.73;3.85;;;27.60;67.80;;;;;;5065448;28;20369;-43
2021/03/06 06:21:48;;;;;;;4.55;3.85;;;27.60;67.40;;;;;;5065314;28;20035;-42
2021/03/06 06:24:15;;;;;;;5.32;4.05;;;27.60;67.40;;;;;;5065445;28;20058;-49
2021/03/06 06:26:54;;;;;;;6.85;3.53;;;27.60;67.40;;;;;;5065297;28;20088;-47
2021/03/06 06:29:41;;;;;;;5.47;3.97;;;27.60;67.20;;;;;;5065005;28;20055;-48
2021/03/06 06:32:10;;;;;;;5.95;3.70;;;27.60;67.50;;;;;;5065198;28;20021;-46
2021/03/06 06:34:37;;;;;;;5.05;3.40;;;27.60;68.30;;;;;;5065140;28;20056;-45
2021/03/06 06:37:16;;;;;;;6.15;4.00;;;27.60;68.10;;;;;;5065181;28;20025;-50
2021/03/06 06:39:44;;;;;;;6.40;3.83;;;27.60;68.70;;;;;;5065122;28;20040;-43
2021/03/06 06:42:11;;;;;;;6.30;3.83;;;27.60;68.20;;;;;;5065299;28;20017;-46
2021/03/06 06:44:38;;;;;;;9.45;4.53;;;27.60;68.80;;;;;;5065041;28;20100;-45
2021/03/06 06:47:18;;;;;;;10.02;4.75;;;27.50;68.60;;;;;;5064791;28;20360;-50
2021/03/06 06:49:48;;;;;;;7.32;4.78;;;27.50;69.40;;;;;;5065187;28;20032;-44
2021/03/06 06:52:17;;;;;;;7.05;4.85;;;27.50;70.10;;;;;;5063889;28;20041;-42
2021/03/06 06:54:54;;;;;;;6.90;4.30;;;27.40;68.30;;;;;;5064970;28;20033;-47
2021/03/06 06:57:22;;;;;;;8.55;5.47;;;27.50;68.90;;;;;;5064891;28;20009;-43
2021/03/06 06:59:57;;;;;;;10.32;5.68;;;27.40;70.40;;;;;;5064988;28;20029;-51
2021/03/06 07:02:25;;;;;;;8.15;6.00;;;27.50;71.80;;;;;;5064975;28;20166;-46
2021/03/06 07:04:57;;;;;;;13.07;6.63;;;27.40;73.10;;;;;;5064944;28;20035;-42
2021/03/06 07:07:26;;;;;;;12.47;6.60;;;27.40;73.00;;;;;;5065131;28;20215;-42
2021/03/06 07:10:16;;;;;;;10.23;6.97;;;27.30;74.50;;;;;;5064616;28;20309;-42
2021/03/06 07:12:45;;;;;;;11.98;7.28;;;27.30;75.40;;;;;;5064390;28;20020;-42
2021/03/06 07:15:23;;;;;;;11.23;7.90;;;27.20;76.30;;;;;;5064244;28;20052;-43
2021/03/06 07:17:54;;;;;;;10.10;7.60;;;27.10;75.80;;;;;;5064113;28;20023;-46
2021/03/06 07:20:24;;;;;;;10.30;7.80;;;27.10;76.70;;;;;;5064726;28;20029;-44
2021/03/06 07:22:52;;;;;;;10.77;7.72;;;27.10;77.10;;;;;;5061568;28;20289;-43
2021/03/06 07:25:19;;;;;;;10.27;8.40;;;27.00;77.90;;;;;;5054509;28;20076;-42
2021/03/06 07:27:46;;;;;;;10.95;8.07;;;27.00;78.40;;;;;;5044202;28;20024;-43
2021/03/06 07:30:16;;;;;;;14.80;8.05;;;27.00;79.00;;;;;;5044488;28;20037;-43
2021/03/06 07:32:45;;;;;;;10.52;7.97;;;26.90;78.80;;;;;;5044301;28;20018;-43
2021/03/06 07:35:14;;;;;;;12.70;7.75;;;26.90;78.80;;;;;;5044710;28;20071;-42
2021/03/06 07:37:41;;;;;;;12.35;8.40;;;27.00;79.30;;;;;;5043937;28;20024;-49
2021/03/06 07:40:10;;;;;;;13.00;8.40;;;26.90;79.30;;;;;;5044331;28;20029;-42
2021/03/06 07:42:47;;;;;;;11.63;8.18;;;26.90;79.00;;;;;;5044053;28;20017;-46
2021/03/06 07:45:20;;;;;;;12.60;7.65;;;26.90;79.50;;;;;;5044555;28;20025;-45
2021/03/06 07:47:51;;;;;;;11.02;8.50;;;26.90;79.60;;;;;;5044069;28;20021;-49
2021/03/06 07:50:24;;;;;;;10.88;8.68;;;26.80;79.90;;;;;;5044136;28;20036;-43
2021/03/06 07:52:50;;;;;;;10.20;7.75;;;26.80;80.40;;;;;;5044150;28;20029;-43
2021/03/06 07:55:18;;;;;;;13.82;9.43;;;26.80;81.00;;;;;;5044291;28;20042;-44
2021/03/06 07:58:03;;;;;;;13.82;8.18;;;26.70;81.40;;;;;;5043904;28;20029;-43
2021/03/06 08:01:01;;;;;;;13.27;7.38;;;26.70;80.90;;;;;;5044304;28;20029;-45
2021/03/06 08:03:31;;;;;;;11.40;7.97;;;26.70;80.90;;;;;;5011047;28;20268;-43
2021/03/06 08:06:16;;;;;;;13.43;8.07;;;26.70;80.30;;;;;;5044356;28;20029;-43
2021/03/06 08:08:43;;;;;;;13.05;8.70;;;26.70;80.40;;;;;;5043601;28;20089;-45
2021/03/06 08:11:18;;;;;;;11.50;8.00;;;26.70;81.00;;;;;;5043884;28;20021;-44
2021/03/06 08:13:53;;;;;;;11.75;8.27;;;26.70;81.40;;;;;;5043894;28;20028;-43
2021/03/06 08:16:23;;;;;;;11.23;7.35;;;26.70;80.80;;;;;;5043884;28;20314;-45
2021/03/06 08:18:58;;;;;;;14.25;8.00;;;26.70;80.70;;;;;;5043662;28;20018;-43
2021/03/06 08:21:31;;;;;;;10.77;7.63;;;26.70;80.60;;;;;;5043554;28;20071;-43
2021/03/06 08:24:18;;;;;;;13.50;8.05;;;26.70;80.60;;;;;;5043578;28;20025;-43
2021/03/06 08:26:52;;;;;;;16.15;10.32;;;26.60;80.90;;;;;;5043589;28;20025;-45
2021/03/06 08:29:22;;;;;;;17.08;9.65;;;26.60;80.80;;;;;;5043793;28;20187;-48
2021/03/06 08:32:03;;;;;;;11.13;7.55;;;26.60;81.10;;;;;;5043808;28;20080;-46
2021/03/06 08:34:41;;;;;;;11.93;7.80;;;26.70;80.20;;;;;;5043759;28;20017;-43
2021/03/06 08:39:40;;;;;;;;;;;26.70;79.50;;;;;;5044057;28;20089;-45
2021/03/06 08:42:07;;;;;;;9.88;6.05;;;26.70;78.90;;;;;;5043777;28;19905;-43
2021/03/06 08:44:34;;;;;;;9.73;5.68;;;26.70;78.90;;;;;;5043612;28;20051;-46
2021/03/06 08:47:01;;;;;;;11.25;6.50;;;26.70;78.50;;;;;;5043413;28;20061;-49
2021/03/06 08:49:28;;;;;;;7.63;5.93;;;26.70;78.50;;;;;;5043616;28;20025;-43
2021/03/06 08:51:56;;;;;;;7.88;5.75;;;26.70;78.30;;;;;;5043324;28;20046;-46
2021/03/06 08:54:22;;;;;;;7.20;5.22;;;26.70;77.60;;;;;;5043666;28;20033;-47
2021/03/06 08:56:50;;;;;;;9.18;5.07;;;26.70;77.40;;;;;;5043307;28;20052;-49
2021/03/06 08:59:16;;;;;;;7.25;4.93;;;26.80;77.10;;;;;;5043463;28;20179;-45
2021/03/06 09:01:45;;;;;;;6.53;4.88;;;26.80;76.60;;;;;;5043430;28;20017;-46
2021/03/06 09:04:13;;;;;;;7.32;4.78;;;26.80;75.80;;;;;;5043350;28;20044;-48
2021/03/06 09:06:41;;;;;;;12.60;4.80;;;26.80;75.20;;;;;;5043266;28;20028;-44
2021/03/06 09:09:10;;;;;;;8.93;4.70;;;26.90;74.90;;;;;;5043269;28;20087;-45
2021/03/06 09:11:55;;;;;;;6.55;4.68;;;27.00;74.70;;;;;;5043198;28;20063;-47
2021/03/06 09:14:23;;;;;;;8.52;4.45;;;27.00;74.70;;;;;;5044634;28;20029;-43
2021/03/06 09:16:50;;;;;;;7.10;4.68;;;27.00;73.90;;;;;;5045520;28;20041;-43
2021/03/06 09:19:24;;;;;;;6.15;4.45;;;27.00;73.90;;;;;;5046620;28;20029;-46
2021/03/06 09:21:58;;;;;;;6.45;4.53;;;27.10;73.80;;;;;;5046436;28;20089;-48
2021/03/06 09:24:25;;;;;;;6.68;4.70;;;27.10;73.70;;;;;;5046909;28;20096;-45
2021/03/06 09:26:53;;;;;;;7.22;4.45;;;27.10;73.40;;;;;;5046477;28;20245;-44
2021/03/06 09:29:28;;;;;;;6.97;3.88;;;27.10;73.40;;;;;;5046676;28;20037;-45
2021/03/06 09:31:55;;;;;;;6.00;4.78;;;27.10;73.30;;;;;;5046642;28;20019;-44
2021/03/06 09:34:28;;;;;;;5.40;4.63;;;27.20;73.20;;;;;;5046724;28;20068;-45
2021/03/06 09:36:55;;;;;;;6.88;4.30;;;27.10;73.50;;;;;;5046337;28;20017;-51
2021/03/06 09:39:26;;;;;;;6.50;4.45;;;27.10;72.90;;;;;;5046149;28;20234;-44
2021/03/06 09:41:52;;;;;;;6.65;5.05;;;27.10;72.50;;;;;;5046172;28;20214;-49
2021/03/06 09:44:19;;;;;;;7.72;4.40;;;27.10;72.80;;;;;;5046172;28;20332;-46
2021/03/06 09:46:47;;;;;;;6.50;4.60;;;27.10;72.50;;;;;;5046110;28;20033;-43
2021/03/06 09:49:15;;;;;;;7.18;4.20;;;27.10;72.70;;;;;;5046173;28;20022;-43
2021/03/06 09:51:46;;;;;;;7.95;4.32;;;27.20;72.80;;;;;;5045865;28;20326;-44
2021/03/06 09:54:17;;;;;;;7.30;4.55;;;27.20;72.70;;;;;;5046145;28;20322;-46
2021/03/06 09:56:55;;;;;;;6.55;4.50;;;27.10;73.00;;;;;;5045771;28;20079;-43
2021/03/06 09:59:24;;;;;;;6.07;4.10;;;27.20;72.90;;;;;;5046148;28;20048;-46
2021/03/06 10:01:51;;;;;;;7.78;4.60;;;27.20;72.80;;;;;;5045906;28;20025;-44
2021/03/06 10:04:19;;;;;;;6.95;4.25;;;27.10;73.20;;;;;;5045857;28;20036;-41
2021/03/06 10:06:49;;;;;;;6.95;4.30;;;27.10;73.30;;;;;;5046027;28;20021;-42
2021/03/06 10:09:18;;;;;;;11.90;4.15;;;27.10;73.20;;;;;;5045746;28;20078;-42
2021/03/06 10:11:48;;;;;;;9.35;4.57;;;27.10;74.10;;;;;;5045728;28;20094;-45
2021/03/06 10:14:22;;;;;;;9.60;4.32;;;27.10;74.10;;;;;;5045711;28;20029;-43
2021/03/06 10:16:56;;;;;;;7.32;4.55;;;27.00;74.50;;;;;;5045740;28;20030;-46
2021/03/06 10:19:26;;;;;;;4.65;3.97;;;27.00;74.20;;;;;;5045821;28;20092;-43
2021/03/06 10:22:02;;;;;;;7.85;4.07;;;27.00;74.60;;;;;;5045358;28;20033;-46
2021/03/06 10:24:30;;;;;;;6.97;4.78;;;27.10;74.10;;;;;;5045512;28;20271;-41
2021/03/06 10:27:01;;;;;;;9.60;4.78;;;27.10;74.60;;;;;;5045451;28;20048;-50
2021/03/06 10:29:30;;;;;;;6.90;4.55;;;27.00;74.60;;;;;;5045364;28;20033;-50
2021/03/06 10:32:04;;;;;;;7.93;4.78;;;27.00;74.70;;;;;;5045609;28;20038;-43
2021/03/06 10:34:37;;;;;;;7.18;4.70;;;27.00;74.90;;;;;;5045571;28;20306;-43
2021/03/06 10:37:09;;;;;;;6.93;4.68;;;27.00;74.90;;;;;;5045541;28;20029;-46
2021/03/06 10:39:51;;;;;;;7.47;4.40;;;27.00;75.20;;;;;;5045115;28;20022;-41
2021/03/06 10:42:18;;;;;;;9.93;4.82;;;26.90;74.90;;;;;;5045311;28;20017;-45
2021/03/06 10:44:44;;;;;;;6.63;4.53;;;26.90;75.00;;;;;;5045382;28;20029;-43
2021/03/06 10:47:11;;;;;;;10.20;4.63;;;26.90;74.90;;;;;;5045134;28;20021;-43
2021/03/06 10:49:46;;;;;;;14.50;4.85;;;26.90;75.40;;;;;;5045206;28;20218;-46
2021/03/06 10:52:29;;;;;;;6.88;4.50;;;26.90;75.50;;;;;;5044856;28;20333;-43
2021/03/06 10:54:56;;;;;;;;;;;26.80;75.70;;;;;;5045754;28;20293;-43
2021/03/06 10:57:23;;;;;;;9.38;5.03;;;26.80;76.10;;;;;;5044941;28;20100;-46
2021/03/06 10:59:50;;;;;;;9.18;5.38;;;26.70;76.40;;;;;;5044826;28;20045;-50
2021/03/06 11:02:53;;;;;;;8.88;4.63;;;26.70;76.80;;;;;;5044638;28;20017;-44
2021/03/06 11:05:21;;;;;;;8.82;4.88;;;26.60;76.50;;;;;;5045289;28;20049;-44
2021/03/06 11:07:48;;;;;;;7.38;5.32;;;26.60;77.50;;;;;;5044472;28;20020;-42
2021/03/06 11:10:16;;;;;;;6.85;5.13;;;26.60;77.90;;;;;;5044745;28;20096;-48
2021/03/06 11:12:57;;;;;;;9.38;6.35;;;26.60;78.20;;;;;;5044663;28;20025;-47
2021/03/06 11:15:25;;;;;;;13.15;7.22;;;26.60;77.80;;;;;;5044871;28;20025;-40
2021/03/06 11:17:56;;;;;;;15.13;8.68;;;26.60;78.10;;;;;;5044569;28;20021;-48
2021/03/06 11:20:31;;;;;;;13.32;8.85;;;26.60;78.30;;;;;;5044793;28;20033;-43
2021/03/06 11:23:01;;;;;;;18.77;10.43;;;26.60;78.50;;;;;;5044163;28;20024;-48
2021/03/06 11:25:28;;;;;;;50.05;19.73;;;26.60;79.00;;;;;;5044683;28;20096;-44
2021/03/06 11:27:59;;;;;;;49.70;20.33;;;26.60;78.60;;;;;;5044295;28;20017;-45
2021/03/06 11:30:39;;;;;;;61.45;24.45;;;26.60;79.30;;;;;;5044321;28;20067;-45
2021/03/06 11:33:08;;;;;;;68.35;26.63;;;26.50;78.90;;;;;;5044104;28;20025;-45
2021/03/06 11:35:36;;;;;;;59.80;17.45;;;26.60;79.50;;;;;;5044357;28;20271;-45
2021/03/06 11:38:05;;;;;;;48.90;14.25;;;26.60;79.50;;;;;;5043493;28;20022;-43
2021/03/06 11:40:33;;;;;;;35.33;12.43;;;26.60;80.20;;;;;;5044331;28;20025;-44
2021/03/06 11:43:01;;;;;;;16.65;8.80;;;26.60;80.60;;;;;;5043923;28;20025;-47
2021/03/06 11:45:28;;;;;;;18.25;9.10;;;26.60;81.10;;;;;;5044347;28;20273;-46
2021/03/06 11:47:56;;;;;;;22.58;9.10;;;26.50;81.70;;;;;;5044024;28;20068;-42
2021/03/06 11:50:28;;;;;;;28.15;8.60;;;26.50;81.60;;;;;;5043966;28;20241;-48
2021/03/06 11:52:56;;;;;;;13.43;7.00;;;26.50;81.80;;;;;;5044061;28;20060;-44
2021/03/06 11:55:23;;;;;;;24.27;9.00;;;26.60;82.10;;;;;;5044396;28;20022;-44
2021/03/06 11:57:50;;;;;;;36.45;9.45;;;26.50;81.90;;;;;;5043972;28;20086;-47
2021/03/06 12:00:22;;;;;;;21.33;8.52;;;26.50;82.40;;;;;;5044252;28;20248;-46
2021/03/06 12:02:50;;;;;;;35.45;10.02;;;26.50;82.70;;;;;;5043551;28;20021;-50
2021/03/06 12:05:17;;;;;;;28.52;10.55;;;26.50;82.60;;;;;;5044308;28;20040;-41
2021/03/06 12:07:45;;;;;;;38.10;8.90;;;26.50;82.50;;;;;;5043591;28;20026;-45
2021/03/06 12:10:18;;;;;;;42.55;10.07;;;26.50;82.60;;;;;;5043829;28;20037;-42
2021/03/06 12:12:46;;;;;;;22.70;8.60;;;26.50;82.60;;;;;;5043746;28;20017;-43
2021/03/06 12:15:14;;;;;;;25.60;8.23;;;26.40;82.90;;;;;;5043585;28;20025;-43
2021/03/06 12:17:42;;;;;;;20.50;8.57;;;26.40;82.70;;;;;;5043425;28;20017;-50
2021/03/06 12:20:13;;;;;;;25.15;9.40;;;26.40;82.90;;;;;;5043879;28;20092;-42
2021/03/06 12:22:39;;;;;;;26.48;8.80;;;26.50;82.80;;;;;;5043595;28;20028;-46
2021/03/06 12:25:07;;;;;;;49.83;10.73;;;26.50;82.80;;;;;;5043780;28;20032;-43
2021/03/06 12:27:36;;;;;;;18.35;8.40;;;26.40;83.00;;;;;;5043536;28;20025;-42
2021/03/06 12:30:06;;;;;;;24.98;9.57;;;26.40;82.90;;;;;;5043688;28;20037;-40
2021/03/06 12:32:34;;;;;;;17.58;9.02;;;26.50;83.20;;;;;;5043533;28;20364;-45
2021/03/06 12:35:01;;;;;;;16.20;8.30;;;26.50;83.30;;;;;;5043834;28;20088;-43
2021/03/06 12:37:28;;;;;;;19.08;8.98;;;26.60;83.00;;;;;;5043386;28;20045;-41
2021/03/06 12:39:54;;;;;;;31.05;11.68;;;26.60;82.80;;;;;;5043563;28;20029;-46
2021/03/06 12:42:21;;;;;;;40.90;11.05;;;26.60;82.70;;;;;;5043491;28;20017;-42
2021/03/06 12:44:47;;;;;;;33.28;10.48;;;26.60;82.70;;;;;;5043630;28;20025;-47
2021/03/06 12:47:14;;;;;;;45.40;11.55;;;26.60;82.70;;;;;;5043285;28;20014;-43
2021/03/06 12:49:41;;;;;;;41.47;10.40;;;26.60;82.90;;;;;;5045122;28;20029;-42
2021/03/06 12:52:07;;;;;;;23.70;9.48;;;26.60;83.00;;;;;;5046897;28;20108;-43
2021/03/06 12:54:34;;;;;;;20.42;9.65;;;26.50;83.10;;;;;;5047180;28;20044;-45
2021/03/06 12:57:01;;;;;;;30.23;11.05;;;26.50;83.50;;;;;;5046978;28;20325;-42